sensor_id;sensor_type;location;lat;lon;timestamp;pressure;altitude;pressure_sealevel;temperature;humidity
53758;BME280;39674;59.860;30.672;2023-02-01T00:01:22;98973.34;;;-0.73;100.00
53758;BME280;39674;59.860;30.672;2023-02-01T00:04:09;98981.34;;;-0.79;100.00
53758;BME280;39674;59.860;30.672;2023-02-01T00:07:00;98981.22;;;-0.76;100.00
53758;BME280;39674;59.860;30.672;2023-02-01T00:09:36;98984.69;;;-0.77;100.00
53758;BME280;39674;59.860;30.672;2023-02-01T00:12:35;98979.63;;;-0.81;100.00
53758;BME280;39674;59.860;30.672;2023-02-01T00:15:45;98983.81;;;-0.76;100.00
53758;BME280;39674;59.860;30.672;2023-02-01T00:18:43;98990.00;;;-0.81;100.00
53758;BME280;39674;59.860;30.672;2023-02-01T00:21:27;98991.78;;;-0.83;100.00
53758;BME280;39674;59.860;30.672;2023-02-01T00:23:59;98983.03;;;-0.78;100.00
53758;BME280;39674;59.860;30.672;2023-02-01T00:26:37;98984.81;;;-0.81;100.00
53758;BME280;39674;59.860;30.672;2023-02-01T00:30:09;98989.88;;;-0.77;100.00
53758;BME280;39674;59.860;30.672;2023-02-01T00:33:04;98990.00;;;-0.81;100.00
53758;BME280;39674;59.860;30.672;2023-02-01T00:35:55;98997.78;;;-0.81;100.00
53758;BME280;39674;59.860;30.672;2023-02-01T00:38:41;98996.88;;;-0.79;100.00
53758;BME280;39674;59.860;30.672;2023-02-01T00:41:22;99001.41;;;-0.86;100.00
53758;BME280;39674;59.860;30.672;2023-02-01T00:44:13;99002.28;;;-0.86;100.00
53758;BME280;39674;59.860;30.672;2023-02-01T00:47:18;99003.09;;;-0.85;100.00
53758;BME280;39674;59.860;30.672;2023-02-01T00:49:58;99010.81;;;-0.84;100.00
53758;BME280;39674;59.860;30.672;2023-02-01T00:52:43;99012.44;;;-0.79;100.00
53758;BME280;39674;59.860;30.672;2023-02-01T00:55:32;99016.00;;;-0.84;100.00
53758;BME280;39674;59.860;30.672;2023-02-01T00:58:44;99023.00;;;-0.86;100.00
53758;BME280;39674;59.860;30.672;2023-02-01T01:01:22;99021.09;;;-0.81;100.00
53758;BME280;39674;59.860;30.672;2023-02-01T01:04:20;99026.28;;;-0.81;100.00
53758;BME280;39674;59.860;30.672;2023-02-01T01:07:40;99026.28;;;-0.81;100.00
53758;BME280;39674;59.860;30.672;2023-02-01T01:10:23;99034.97;;;-0.82;100.00
53758;BME280;39674;59.860;30.672;2023-02-01T01:13:03;99029.78;;;-0.82;100.00
53758;BME280;39674;59.860;30.672;2023-02-01T01:15:56;99028.06;;;-0.83;100.00
53758;BME280;39674;59.860;30.672;2023-02-01T01:18:34;99033.19;;;-0.79;100.00
53758;BME280;39674;59.860;30.672;2023-02-01T01:21:11;99038.44;;;-0.83;100.00
53758;BME280;39674;59.860;30.672;2023-02-01T01:24:14;99036.75;;;-0.84;100.00
53758;BME280;39674;59.860;30.672;2023-02-01T01:27:23;99038.44;;;-0.83;100.00
53758;BME280;39674;59.860;30.672;2023-02-01T01:30:33;99030.78;;;-0.86;100.00
53758;BME280;39674;59.860;30.672;2023-02-01T01:36:31;99028.28;;;-0.89;100.00
53758;BME280;39674;59.860;30.672;2023-02-01T01:53:49;99042.25;;;-0.93;100.00
53758;BME280;39674;59.860;30.672;2023-02-01T01:57:10;99045.59;;;-0.91;100.00
53758;BME280;39674;59.860;30.672;2023-02-01T02:00:18;99050.03;;;-0.94;100.00
53758;BME280;39674;59.860;30.672;2023-02-01T02:03:42;99051.78;;;-0.95;100.00
53758;BME280;39674;59.860;30.672;2023-02-01T02:06:52;99047.50;;;-0.96;100.00
53758;BME280;39674;59.860;30.672;2023-02-01T02:13:53;99055.28;;;-0.96;100.00
53758;BME280;39674;59.860;30.672;2023-02-01T02:17:34;99055.38;;;-0.99;100.00
53758;BME280;39674;59.860;30.672;2023-02-01T02:27:00;99068.34;;;-0.99;100.00
53758;BME280;39674;59.860;30.672;2023-02-01T02:32:47;99064.94;;;-1.01;100.00
53758;BME280;39674;59.860;30.672;2023-02-01T02:38:44;99070.13;;;-1.01;100.00
53758;BME280;39674;59.860;30.672;2023-02-01T02:41:25;99078.72;;;-0.99;100.00
53758;BME280;39674;59.860;30.672;2023-02-01T02:44:23;99085.59;;;-0.98;100.00
53758;BME280;39674;59.860;30.672;2023-02-01T02:47:34;99086.50;;;-0.99;100.00
53758;BME280;39674;59.860;30.672;2023-02-01T02:50:27;99093.38;;;-0.98;100.00
53758;BME280;39674;59.860;30.672;2023-02-01T02:53:27;99101.97;;;-0.98;100.00
53758;BME280;39674;59.860;30.672;2023-02-01T02:56:41;99088.19;;;-0.98;100.00
53758;BME280;39674;59.860;30.672;2023-02-01T02:59:46;99094.16;;;-0.96;100.00
53758;BME280;39674;59.860;30.672;2023-02-01T03:05:23;99097.56;;;-0.94;100.00
53758;BME280;39674;59.860;30.672;2023-02-01T03:06:31;99101.94;;;-0.96;100.00
53758;BME280;39674;59.860;30.672;2023-02-01T03:09:50;99100.19;;;-0.95;100.00
53758;BME280;39674;59.860;30.672;2023-02-01T03:12:40;99106.22;;;-0.95;100.00
53758;BME280;39674;59.860;30.672;2023-02-01T03:15:36;99106.22;;;-0.95;100.00
53758;BME280;39674;59.860;30.672;2023-02-01T03:18:54;99102.75;;;-0.94;100.00
53758;BME280;39674;59.860;30.672;2023-02-01T03:21:38;99107.81;;;-0.91;100.00
53758;BME280;39674;59.860;30.672;2023-02-01T03:24:14;99107.91;;;-0.94;100.00
53758;BME280;39674;59.860;30.672;2023-02-01T03:27:05;99116.50;;;-0.92;100.00
53758;BME280;39674;59.860;30.672;2023-02-01T03:30:10;99113.09;;;-0.94;100.00
53758;BME280;39674;59.860;30.672;2023-02-01T03:32:51;99112.28;;;-0.96;100.00
53758;BME280;39674;59.860;30.672;2023-02-01T03:35:36;99113.09;;;-0.94;100.00
53758;BME280;39674;59.860;30.672;2023-02-01T03:38:36;99114.06;;;-0.97;100.00
53758;BME280;39674;59.860;30.672;2023-02-01T03:41:37;99107.13;;;-0.96;100.00
53758;BME280;39674;59.860;30.672;2023-02-01T03:44:24;99114.88;;;-0.96;100.00
53758;BME280;39674;59.860;30.672;2023-02-01T03:47:25;99112.25;;;-0.94;100.00
53758;BME280;39674;59.860;30.672;2023-02-01T03:50:20;99115.50;;;-0.88;100.00
53758;BME280;39674;59.860;30.672;2023-02-01T03:56:47;99118.00;;;-0.85;100.00
53758;BME280;39674;59.860;30.672;2023-02-01T03:59:26;99119.13;;;-0.93;100.00
53758;BME280;39674;59.860;30.672;2023-02-01T04:02:26;99128.66;;;-0.94;100.00
53758;BME280;39674;59.860;30.672;2023-02-01T04:05:35;99133.84;;;-0.94;100.00
53758;BME280;39674;59.860;30.672;2023-02-01T04:08:32;99139.84;;;-0.92;100.00
53758;BME280;39674;59.860;30.672;2023-02-01T04:11:05;99136.25;;;-0.88;100.00
53758;BME280;39674;59.860;30.672;2023-02-01T04:13:56;99143.22;;;-0.90;100.00
53758;BME280;39674;59.860;30.672;2023-02-01T04:16:31;99138.84;;;-0.88;100.00
53758;BME280;39674;59.860;30.672;2023-02-01T04:19:16;99137.25;;;-0.92;100.00
53758;BME280;39674;59.860;30.672;2023-02-01T04:21:45;99145.81;;;-0.90;100.00
53758;BME280;39674;59.860;30.672;2023-02-01T04:24:27;99144.97;;;-0.90;100.00
53758;BME280;39674;59.860;30.672;2023-02-01T04:27:16;99151.84;;;-0.89;100.00
53758;BME280;39674;59.860;30.672;2023-02-01T04:30:11;99159.66;;;-0.91;100.00
53758;BME280;39674;59.860;30.672;2023-02-01T04:48:50;99179.56;;;-0.91;100.00
53758;BME280;39674;59.860;30.672;2023-02-01T04:51:46;99175.38;;;-0.95;100.00
53758;BME280;39674;59.860;30.672;2023-02-01T04:54:41;99185.69;;;-0.94;100.00
53758;BME280;39674;59.860;30.672;2023-02-01T04:57:26;99193.34;;;-0.89;100.00
53758;BME280;39674;59.860;30.672;2023-02-01T05:00:38;99194.28;;;-0.92;100.00
53758;BME280;39674;59.860;30.672;2023-02-01T05:03:21;99194.28;;;-0.92;100.00
53758;BME280;39674;59.860;30.672;2023-02-01T05:08:55;99208.00;;;-0.88;100.00
53758;BME280;39674;59.860;30.672;2023-02-01T05:11:29;99195.06;;;-0.90;100.00
53758;BME280;39674;59.860;30.672;2023-02-01T05:14:22;99206.25;;;-0.88;100.00
53758;BME280;39674;59.860;30.672;2023-02-01T05:17:05;99203.72;;;-0.91;100.00
53758;BME280;39674;59.860;30.672;2023-02-01T05:19:43;99204.75;;;-0.97;100.00
53758;BME280;39674;59.860;30.672;2023-02-01T05:22:16;99200.41;;;-0.96;100.00
53758;BME280;39674;59.860;30.672;2023-02-01T05:24:52;99200.47;;;-0.98;100.00
53758;BME280;39674;59.860;30.672;2023-02-01T05:30:09;99208.38;;;-1.02;100.00
53758;BME280;39674;59.860;30.672;2023-02-01T05:33:20;99215.31;;;-1.04;100.00
53758;BME280;39674;59.860;30.672;2023-02-01T05:36:07;99213.72;;;-1.08;100.00
53758;BME280;39674;59.860;30.672;2023-02-01T05:39:07;99212.88;;;-1.09;100.00
53758;BME280;39674;59.860;30.672;2023-02-01T05:41:53;99213.91;;;-1.15;100.00
53758;BME280;39674;59.860;30.672;2023-02-01T05:44:59;99221.50;;;-1.08;100.00
53758;BME280;39674;59.860;30.672;2023-02-01T05:47:35;99225.88;;;-1.10;100.00
53758;BME280;39674;59.860;30.672;2023-02-01T05:50:11;99224.34;;;-1.18;100.00
53758;BME280;39674;59.860;30.672;2023-02-01T05:53:14;99226.13;;;-1.20;100.00
53758;BME280;39674;59.860;30.672;2023-02-01T05:55:49;99228.88;;;-1.26;100.00
53758;BME280;39674;59.860;30.672;2023-02-01T05:58:49;99233.41;;;-1.34;100.00
53758;BME280;39674;59.860;30.672;2023-02-01T06:01:45;99235.19;;;-1.36;100.00
53758;BME280;39674;59.860;30.672;2023-02-01T06:04:52;99235.28;;;-1.39;100.00
53758;BME280;39674;59.860;30.672;2023-02-01T06:07:58;99242.22;;;-1.41;100.00
53758;BME280;39674;59.860;30.672;2023-02-01T06:10:59;99241.41;;;-1.43;100.00
53758;BME280;39674;59.860;30.672;2023-02-01T06:13:32;99241.41;;;-1.43;100.00
53758;BME280;39674;59.860;30.672;2023-02-01T06:16:27;99242.22;;;-1.41;100.00
53758;BME280;39674;59.860;30.672;2023-02-01T06:19:06;99239.84;;;-1.49;100.00
53758;BME280;39674;59.860;30.672;2023-02-01T06:21:56;99247.66;;;-1.51;100.00
53758;BME280;39674;59.860;30.672;2023-02-01T06:24:30;99252.91;;;-1.54;100.00
53758;BME280;39674;59.860;30.672;2023-02-01T06:27:22;99254.84;;;-1.62;100.00
53758;BME280;39674;59.860;30.672;2023-02-01T06:30:20;99254.94;;;-1.65;100.00
53758;BME280;39674;59.860;30.672;2023-02-01T06:33:16;99256.78;;;-1.70;100.00
53758;BME280;39674;59.860;30.672;2023-02-01T06:36:04;99262.75;;;-1.67;100.00
53758;BME280;39674;59.860;30.672;2023-02-01T06:38:40;99260.25;;;-1.71;100.00
53758;BME280;39674;59.860;30.672;2023-02-01T06:41:19;99260.22;;;-1.70;100.00
53758;BME280;39674;59.860;30.672;2023-02-01T06:43:57;99266.06;;;-1.63;100.00
53758;BME280;39674;59.860;30.672;2023-02-01T06:46:43;99275.41;;;-1.56;100.00
53758;BME280;39674;59.860;30.672;2023-02-01T06:49:33;99287.41;;;-1.52;100.00
53758;BME280;39674;59.860;30.672;2023-02-01T06:52:36;99290.72;;;-1.47;100.00
53758;BME280;39674;59.860;30.672;2023-02-01T06:55:07;99288.91;;;-1.43;100.00
53758;BME280;39674;59.860;30.672;2023-02-01T07:00:32;99297.50;;;-1.42;100.00
53758;BME280;39674;59.860;30.672;2023-02-01T07:03:15;99306.78;;;-1.34;100.00
53758;BME280;39674;59.860;30.672;2023-02-01T07:06:06;99307.50;;;-1.27;100.00
53758;BME280;39674;59.860;30.672;2023-02-01T07:09:04;99310.75;;;-1.19;100.00
53758;BME280;39674;59.860;30.672;2023-02-01T07:11:48;99308.94;;;-1.17;100.00
53758;BME280;39674;59.860;30.672;2023-02-01T07:14:24;99304.69;;;-1.18;100.00
53758;BME280;39674;59.860;30.672;2023-02-01T07:16:55;99309.75;;;-1.15;100.00
53758;BME280;39674;59.860;30.672;2023-02-01T07:19:48;99312.41;;;-1.16;100.00
53758;BME280;39674;59.860;30.672;2023-02-01T07:22:26;99314.88;;;-1.11;100.00
53758;BME280;39674;59.860;30.672;2023-02-01T07:25:00;99318.38;;;-1.14;100.00
53758;BME280;39674;59.860;30.672;2023-02-01T07:27:39;99317.63;;;-1.18;100.00
53758;BME280;39674;59.860;30.672;2023-02-01T07:30:15;99326.13;;;-1.13;100.00
53758;BME280;39674;59.860;30.672;2023-02-01T07:35:43;99329.34;;;-1.03;100.00
53758;BME280;39674;59.860;30.672;2023-02-01T07:38:29;99322.56;;;-1.08;100.00
53758;BME280;39674;59.860;30.672;2023-02-01T07:40:58;99330.28;;;-1.05;100.00
53758;BME280;39674;59.860;30.672;2023-02-01T07:43:34;99338.72;;;-0.99;100.00
53758;BME280;39674;59.860;30.672;2023-02-01T07:46:11;99342.97;;;-0.96;100.00
53758;BME280;39674;59.860;30.672;2023-02-01T07:49:00;99341.25;;;-0.97;100.00
53758;BME280;39674;59.860;30.672;2023-02-01T07:51:31;99339.59;;;-0.98;100.00
53758;BME280;39674;59.860;30.672;2023-02-01T07:54:06;99344.69;;;-0.95;100.00
53758;BME280;39674;59.860;30.672;2023-02-01T07:56:39;99336.94;;;-0.97;100.00
53758;BME280;39674;59.860;30.672;2023-02-01T07:59:13;99346.44;;;-0.97;100.00
53758;BME280;39674;59.860;30.672;2023-02-01T08:01:52;99340.25;;;-0.91;100.00
53758;BME280;39674;59.860;30.672;2023-02-01T08:04:43;99345.50;;;-0.94;100.00
53758;BME280;39674;59.860;30.672;2023-02-01T08:07:42;99346.28;;;-0.91;100.00
53758;BME280;39674;59.860;30.672;2023-02-01T08:10:24;99347.09;;;-0.89;100.00
53758;BME280;39674;59.860;30.672;2023-02-01T08:13:05;99344.41;;;-0.84;100.00
53758;BME280;39674;59.860;30.672;2023-02-01T08:16:01;99347.06;;;-0.87;100.00
53758;BME280;39674;59.860;30.672;2023-02-01T08:18:39;99343.75;;;-0.92;100.00
53758;BME280;39674;59.860;30.672;2023-02-01T08:21:19;99343.63;;;-0.88;100.00
53758;BME280;39674;59.860;30.672;2023-02-01T08:24:15;99346.22;;;-0.88;100.00
53758;BME280;39674;59.860;30.672;2023-02-01T08:26:48;99354.66;;;-0.79;100.00
53758;BME280;39674;59.860;30.672;2023-02-01T08:29:20;99350.53;;;-0.87;100.00
53758;BME280;39674;59.860;30.672;2023-02-01T08:32:15;99354.81;;;-0.86;100.00
53758;BME280;39674;59.860;30.672;2023-02-01T08:35:12;99353.09;;;-0.87;100.00
53758;BME280;39674;59.860;30.672;2023-02-01T08:37:54;99365.09;;;-0.83;100.00
53758;BME280;39674;59.860;30.672;2023-02-01T08:40:25;99361.59;;;-0.82;100.00
53758;BME280;39674;59.860;30.672;2023-02-01T08:43:19;99358.19;;;-0.84;100.00
53758;BME280;39674;59.860;30.672;2023-02-01T08:46:00;99364.00;;;-0.74;100.00
53758;BME280;39674;59.860;30.672;2023-02-01T08:48:54;99364.84;;;-0.73;100.00
53758;BME280;39674;59.860;30.672;2023-02-01T08:51:37;99364.91;;;-0.76;100.00
53758;BME280;39674;59.860;30.672;2023-02-01T08:54:08;99365.03;;;-0.79;100.00
53758;BME280;39674;59.860;30.672;2023-02-01T08:56:49;99368.50;;;-0.81;100.00
53758;BME280;39674;59.860;30.672;2023-02-01T08:59:31;99366.56;;;-0.72;100.00
53758;BME280;39674;59.860;30.672;2023-02-01T09:02:12;99367.44;;;-0.73;100.00
53758;BME280;39674;59.860;30.672;2023-02-01T09:04:47;99370.81;;;-0.70;100.00
53758;BME280;39674;59.860;30.672;2023-02-01T09:09:45;99364.91;;;-0.76;100.00
53758;BME280;39674;59.860;30.672;2023-02-01T09:10:23;99364.75;;;-0.70;100.00
53758;BME280;39674;59.860;30.672;2023-02-01T09:13:03;99365.69;;;-0.73;100.00
53758;BME280;39674;59.860;30.672;2023-02-01T09:15:45;99372.59;;;-0.72;100.00
53758;BME280;39674;59.860;30.672;2023-02-01T09:19:07;99372.59;;;-0.72;100.00
53758;BME280;39674;59.860;30.672;2023-02-01T09:21:36;99373.34;;;-0.68;100.00
53758;BME280;39674;59.860;30.672;2023-02-01T09:24:22;99375.28;;;-0.76;100.00
53758;BME280;39674;59.860;30.672;2023-02-01T09:27:17;99371.91;;;-0.78;100.00
53758;BME280;39674;59.860;30.672;2023-02-01T09:30:05;99371.69;;;-0.71;100.00
53758;BME280;39674;59.860;30.672;2023-02-01T09:33:11;99375.94;;;-0.68;100.00
53758;BME280;39674;59.860;30.672;2023-02-01T09:36:02;99370.94;;;-0.74;100.00
53758;BME280;39674;59.860;30.672;2023-02-01T09:39:05;99376.84;;;-0.69;100.00
53758;BME280;39674;59.860;30.672;2023-02-01T09:42:35;99376.03;;;-0.71;100.00
53758;BME280;39674;59.860;30.672;2023-02-01T09:45:59;99377.09;;;-0.78;100.00
53758;BME280;39674;59.860;30.672;2023-02-01T09:52:20;99366.72;;;-0.78;100.00
53758;BME280;39674;59.860;30.672;2023-02-01T09:55:32;99381.31;;;-0.74;100.00
53758;BME280;39674;59.860;30.672;2023-02-01T09:58:41;99369.22;;;-0.75;100.00
53758;BME280;39674;59.860;30.672;2023-02-01T10:04:49;99376.06;;;-0.73;100.00
53758;BME280;39674;59.860;30.672;2023-02-01T10:13:44;99379.47;;;-0.71;100.00
53758;BME280;39674;59.860;30.672;2023-02-01T10:17:37;99370.03;;;-0.73;100.00
53758;BME280;39674;59.860;30.672;2023-02-01T10:20:04;99384.56;;;-0.66;100.00
53758;BME280;39674;59.860;30.672;2023-02-01T10:26:32;99376.84;;;-0.69;100.00
53758;BME280;39674;59.860;30.672;2023-02-01T10:29:20;99371.59;;;-0.66;100.00
53758;BME280;39674;59.860;30.672;2023-02-01T10:35:21;99372.53;;;-0.69;100.00
53758;BME280;39674;59.860;30.672;2023-02-01T10:37:55;99371.59;;;-0.66;100.00
53758;BME280;39674;59.860;30.672;2023-02-01T10:47:01;99378.31;;;-0.60;100.00
53758;BME280;39674;59.860;30.672;2023-02-01T10:50:22;99376.84;;;-0.69;100.00
53758;BME280;39674;59.860;30.672;2023-02-01T10:54:00;99373.53;;;-0.74;100.00
53758;BME280;39674;59.860;30.672;2023-02-01T10:57:09;99387.13;;;-0.66;100.00
53758;BME280;39674;59.860;30.672;2023-02-01T11:00:20;99374.97;;;-0.64;100.00
53758;BME280;39674;59.860;30.672;2023-02-01T11:10:03;99381.69;;;-0.57;100.00
53758;BME280;39674;59.860;30.672;2023-02-01T11:12:52;99379.16;;;-0.58;100.00
53758;BME280;39674;59.860;30.672;2023-02-01T11:17:02;99383.50;;;-0.59;100.00
53758;BME280;39674;59.860;30.672;2023-02-01T11:18:52;99385.28;;;-0.61;100.00
53758;BME280;39674;59.860;30.672;2023-02-01T11:22:10;99379.91;;;-0.55;100.00
53758;BME280;39674;59.860;30.672;2023-02-01T11:25:21;99378.09;;;-0.51;100.00
53758;BME280;39674;59.860;30.672;2023-02-01T11:28:38;99383.22;;;-0.50;100.00
53758;BME280;39674;59.860;30.672;2023-02-01T11:31:23;99380.72;;;-0.53;100.00
53758;BME280;39674;59.860;30.672;2023-02-01T11:37:14;99383.06;;;-0.43;100.00
53758;BME280;39674;59.860;30.672;2023-02-01T11:43:53;99383.22;;;-0.50;100.00
53758;BME280;39674;59.860;30.672;2023-02-01T11:50:14;99382.28;;;-0.47;100.00
53758;BME280;39674;59.860;30.672;2023-02-01T12:52:05;99389.22;;;-0.47;100.00
53758;BME280;39674;59.860;30.672;2023-02-01T13:22:50;99388.41;;;-0.50;100.00
53758;BME280;39674;59.860;30.672;2023-02-01T13:25:43;99394.50;;;-0.51;100.00
53758;BME280;39674;59.860;30.672;2023-02-01T13:31:28;99385.09;;;-0.55;100.00
53758;BME280;39674;59.860;30.672;2023-02-01T13:34:43;99387.66;;;-0.53;100.00
53758;BME280;39674;59.860;30.672;2023-02-01T13:37:35;99391.19;;;-0.56;100.00
53758;BME280;39674;59.860;30.672;2023-02-01T13:40:39;99392.88;;;-0.55;100.00
53758;BME280;39674;59.860;30.672;2023-02-01T13:43:23;99392.88;;;-0.55;100.00
53758;BME280;39674;59.860;30.672;2023-02-01T13:46:05;99397.34;;;-0.60;100.00
53758;BME280;39674;59.860;30.672;2023-02-01T13:48:46;99394.81;;;-0.63;100.00
53758;BME280;39674;59.860;30.672;2023-02-01T13:51:42;99399.78;;;-0.55;100.00
53758;BME280;39674;59.860;30.672;2023-02-01T13:54:26;99400.84;;;-0.61;100.00
53758;BME280;39674;59.860;30.672;2023-02-01T13:57:10;99399.16;;;-0.63;100.00
53758;BME280;39674;59.860;30.672;2023-02-01T13:59:53;99395.72;;;-0.64;100.00
53758;BME280;39674;59.860;30.672;2023-02-01T14:06:02;99395.75;;;-0.66;100.00
53758;BME280;39674;59.860;30.672;2023-02-01T14:11:37;99407.94;;;-0.69;100.00
53758;BME280;39674;59.860;30.672;2023-02-01T14:24:01;99420.09;;;-0.71;100.00
53758;BME280;39674;59.860;30.672;2023-02-01T14:26:44;99427.09;;;-0.73;100.00
53758;BME280;39674;59.860;30.672;2023-02-01T14:29:30;99422.84;;;-0.76;100.00
53758;BME280;39674;59.860;30.672;2023-02-01T14:32:13;99428.94;;;-0.78;100.00
53758;BME280;39674;59.860;30.672;2023-02-01T19:16:16;99508.81;;;-0.94;100.00
53758;BME280;39674;59.860;30.672;2023-02-01T19:20:11;99508.91;;;-0.98;100.00
53758;BME280;39674;59.860;30.672;2023-02-01T19:21:57;99507.16;;;-0.97;100.00
53758;BME280;39674;59.860;30.672;2023-02-01T19:27:28;99508.94;;;-0.99;100.00
53758;BME280;39674;59.860;30.672;2023-02-01T19:33:59;99517.47;;;-0.94;100.00
53758;BME280;39674;59.860;30.672;2023-02-01T19:37:01;99512.31;;;-0.97;100.00
53758;BME280;39674;59.860;30.672;2023-02-01T19:39:58;99513.06;;;-0.90;100.00
53758;BME280;39674;59.860;30.672;2023-02-01T19:43:22;99512.19;;;-0.91;100.00
53758;BME280;39674;59.860;30.672;2023-02-01T20:13:47;99525.19;;;-0.92;100.00
53758;BME280;39674;59.860;30.672;2023-02-01T20:48:47;99527.81;;;-0.94;100.00
53758;BME280;39674;59.860;30.672;2023-02-01T20:51:31;99533.91;;;-0.95;100.00
53758;BME280;39674;59.860;30.672;2023-02-01T20:54:27;99532.13;;;-0.94;100.00
53758;BME280;39674;59.860;30.672;2023-02-01T20:57:04;99533.84;;;-0.93;100.00
53758;BME280;39674;59.860;30.672;2023-02-01T20:59:43;99530.47;;;-0.95;100.00
53758;BME280;39674;59.860;30.672;2023-02-01T21:02:15;99534.78;;;-0.96;100.00
53758;BME280;39674;59.860;30.672;2023-02-01T21:04:53;99536.50;;;-0.95;100.00
53758;BME280;39674;59.860;30.672;2023-02-01T21:07:35;99539.06;;;-0.95;100.00
53758;BME280;39674;59.860;30.672;2023-02-01T21:10:10;99539.16;;;-0.98;100.00
53758;BME280;39674;59.860;30.672;2023-02-01T21:12:41;99533.06;;;-0.97;100.00
53758;BME280;39674;59.860;30.672;2023-02-01T21:15:20;99539.97;;;-0.96;100.00
53758;BME280;39674;59.860;30.672;2023-02-01T21:17:52;99543.38;;;-0.94;100.00
53758;BME280;39674;59.860;30.672;2023-02-01T21:20:25;99541.75;;;-0.98;100.00
53758;BME280;39674;59.860;30.672;2023-02-01T21:23:04;99541.78;;;-1.00;100.00
53758;BME280;39674;59.860;30.672;2023-02-01T21:26:04;99533.16;;;-1.00;100.00
53758;BME280;39674;59.860;30.672;2023-02-01T21:28:44;99540.03;;;-0.99;100.00
53758;BME280;39674;59.860;30.672;2023-02-01T21:31:18;99546.16;;;-1.02;100.00
53758;BME280;39674;59.860;30.672;2023-02-01T21:33:57;99549.53;;;-1.00;100.00
53758;BME280;39674;59.860;30.672;2023-02-01T21:39:34;99547.00;;;-1.01;100.00
53758;BME280;39674;59.860;30.672;2023-02-01T21:42:23;99545.38;;;-1.05;100.00
53758;BME280;39674;59.860;30.672;2023-02-01T21:45:09;99546.28;;;-1.08;100.00
53758;BME280;39674;59.860;30.672;2023-02-01T21:47:40;99551.47;;;-1.08;100.00
53758;BME280;39674;59.860;30.672;2023-02-01T21:50:20;99549.72;;;-1.07;100.00
53758;BME280;39674;59.860;30.672;2023-02-01T21:53:00;99552.31;;;-1.07;100.00
53758;BME280;39674;59.860;30.672;2023-02-01T21:55:40;99555.78;;;-1.08;100.00
53758;BME280;39674;59.860;30.672;2023-02-01T21:58:17;99566.16;;;-1.08;100.00
53758;BME280;39674;59.860;30.672;2023-02-01T22:01:34;99560.91;;;-1.05;100.00
53758;BME280;39674;59.860;30.672;2023-02-01T22:04:26;99559.25;;;-1.09;100.00
53758;BME280;39674;59.860;30.672;2023-02-01T22:07:19;99561.84;;;-1.08;100.00
53758;BME280;39674;59.860;30.672;2023-02-01T22:10:45;99560.19;;;-1.12;100.00
53758;BME280;39674;59.860;30.672;2023-02-01T22:13:20;99564.44;;;-1.09;100.00
53758;BME280;39674;59.860;30.672;2023-02-01T22:16:35;99559.25;;;-1.09;100.00
53758;BME280;39674;59.860;30.672;2023-02-01T22:19:50;99571.44;;;-1.11;100.00
53758;BME280;39674;59.860;30.672;2023-02-01T22:22:30;99566.16;;;-1.08;100.00
53758;BME280;39674;59.860;30.672;2023-02-01T22:25:26;99569.63;;;-1.09;100.00
53758;BME280;39674;59.860;30.672;2023-02-01T22:28:14;99572.25;;;-1.11;100.00
53758;BME280;39674;59.860;30.672;2023-02-01T22:31:09;99576.59;;;-1.11;100.00
53758;BME280;39674;59.860;30.672;2023-02-01T22:34:07;99566.25;;;-1.11;100.00
53758;BME280;39674;59.860;30.672;2023-02-01T22:36:41;99573.09;;;-1.10;100.00
53758;BME280;39674;59.860;30.672;2023-02-01T22:39:14;99574.00;;;-1.11;100.00
53758;BME280;39674;59.860;30.672;2023-02-01T22:41:56;99576.59;;;-1.11;100.00
53758;BME280;39674;59.860;30.672;2023-02-01T22:44:34;99577.50;;;-1.14;100.00
53758;BME280;39674;59.860;30.672;2023-02-01T22:47:19;99569.75;;;-1.16;100.00
53758;BME280;39674;59.860;30.672;2023-02-01T22:50:13;99570.59;;;-1.14;100.00
53758;BME280;39674;59.860;30.672;2023-02-01T22:52:55;99570.59;;;-1.14;100.00
53758;BME280;39674;59.860;30.672;2023-02-01T22:55:52;99578.28;;;-1.10;100.00
53758;BME280;39674;59.860;30.672;2023-02-01T22:58:31;99565.22;;;-1.06;100.00
53758;BME280;39674;59.860;30.672;2023-02-01T23:01:18;99569.72;;;-1.13;100.00
53758;BME280;39674;59.860;30.672;2023-02-01T23:04:12;99571.47;;;-1.15;100.00
53758;BME280;39674;59.860;30.672;2023-02-01T23:06:47;99571.47;;;-1.15;100.00
53758;BME280;39674;59.860;30.672;2023-02-01T23:09:35;99568.06;;;-1.17;100.00
53758;BME280;39674;59.860;30.672;2023-02-01T23:12:12;99566.38;;;-1.18;100.00
53758;BME280;39674;59.860;30.672;2023-02-01T23:14:55;99580.16;;;-1.17;100.00
53758;BME280;39674;59.860;30.672;2023-02-01T23:18:20;99575.03;;;-1.19;100.00
53758;BME280;39674;59.860;30.672;2023-02-01T23:21:03;99579.38;;;-1.21;100.00
53758;BME280;39674;59.860;30.672;2023-02-01T23:23:43;99584.53;;;-1.19;100.00
53758;BME280;39674;59.860;30.672;2023-02-01T23:26:17;99580.25;;;-1.22;100.00
53758;BME280;39674;59.860;30.672;2023-02-01T23:28:56;99582.06;;;-1.25;100.00
53758;BME280;39674;59.860;30.672;2023-02-01T23:31:54;99580.34;;;-1.25;100.00
53758;BME280;39674;59.860;30.672;2023-02-01T23:34:33;99589.03;;;-1.27;100.00
53758;BME280;39674;59.860;30.672;2023-02-01T23:40:29;99583.88;;;-1.29;100.00
53758;BME280;39674;59.860;30.672;2023-02-01T23:43:02;99582.09;;;-1.27;100.00
53758;BME280;39674;59.860;30.672;2023-02-01T23:46:34;99586.50;;;-1.31;100.00
53758;BME280;39674;59.860;30.672;2023-02-01T23:49:12;99583.13;;;-1.34;100.00
53758;BME280;39674;59.860;30.672;2023-02-01T23:51:57;99584.88;;;-1.36;100.00
53758;BME280;39674;59.860;30.672;2023-02-01T23:54:40;99589.25;;;-1.38;100.00
53758;BME280;39674;59.860;30.672;2023-02-01T23:57:34;99583.28;;;-1.42;100.00
